sensor_id;sensor_type;location;lat;lon;timestamp;P1;durP1;ratioP1;P2;durP2;ratioP2
75429;SDS011;64127;51.488;5.462;2023-07-22T00:01:43;11.27;;;10.13;;
75429;SDS011;64127;51.488;5.462;2023-07-22T00:04:15;11.30;;;10.23;;
75429;SDS011;64127;51.488;5.462;2023-07-22T00:06:48;10.80;;;9.80;;
75429;SDS011;64127;51.488;5.462;2023-07-22T00:09:20;10.53;;;9.53;;
75429;SDS011;64127;51.488;5.462;2023-07-22T00:11:52;10.93;;;9.93;;
75429;SDS011;64127;51.488;5.462;2023-07-22T00:14:24;12.80;;;10.20;;
75429;SDS011;64127;51.488;5.462;2023-07-22T00:16:56;10.73;;;9.63;;
75429;SDS011;64127;51.488;5.462;2023-07-22T00:19:28;10.30;;;9.37;;
75429;SDS011;64127;51.488;5.462;2023-07-22T00:22:00;10.67;;;9.63;;
75429;SDS011;64127;51.488;5.462;2023-07-22T00:24:33;10.43;;;9.50;;
75429;SDS011;64127;51.488;5.462;2023-07-22T00:27:08;10.27;;;9.37;;
75429;SDS011;64127;51.488;5.462;2023-07-22T00:29:40;11.20;;;10.10;;
75429;SDS011;64127;51.488;5.462;2023-07-22T00:32:12;10.70;;;9.60;;
75429;SDS011;64127;51.488;5.462;2023-07-22T00:34:45;11.40;;;10.20;;
75429;SDS011;64127;51.488;5.462;2023-07-22T00:37:17;11.20;;;10.10;;
75429;SDS011;64127;51.488;5.462;2023-07-22T00:39:49;11.37;;;10.27;;
75429;SDS011;64127;51.488;5.462;2023-07-22T00:42:21;12.70;;;10.17;;
75429;SDS011;64127;51.488;5.462;2023-07-22T00:44:53;11.33;;;10.20;;
75429;SDS011;64127;51.488;5.462;2023-07-22T00:47:25;10.77;;;9.67;;
75429;SDS011;64127;51.488;5.462;2023-07-22T00:49:59;10.43;;;9.33;;
75429;SDS011;64127;51.488;5.462;2023-07-22T00:52:34;10.83;;;9.10;;
75429;SDS011;64127;51.488;5.462;2023-07-22T00:55:07;10.30;;;9.30;;
75429;SDS011;64127;51.488;5.462;2023-07-22T00:57:40;10.50;;;9.60;;
75429;SDS011;64127;51.488;5.462;2023-07-22T01:00:12;10.70;;;9.60;;
75429;SDS011;64127;51.488;5.462;2023-07-22T01:02:47;11.10;;;10.00;;
75429;SDS011;64127;51.488;5.462;2023-07-22T01:05:22;11.07;;;9.40;;
75429;SDS011;64127;51.488;5.462;2023-07-22T01:07:54;10.00;;;9.00;;
75429;SDS011;64127;51.488;5.462;2023-07-22T01:10:26;10.10;;;9.20;;
75429;SDS011;64127;51.488;5.462;2023-07-22T01:12:59;10.37;;;9.37;;
75429;SDS011;64127;51.488;5.462;2023-07-22T01:15:31;10.83;;;9.73;;
75429;SDS011;64127;51.488;5.462;2023-07-22T01:18:05;10.60;;;9.43;;
75429;SDS011;64127;51.488;5.462;2023-07-22T01:20:38;10.93;;;9.70;;
75429;SDS011;64127;51.488;5.462;2023-07-22T01:23:11;11.23;;;9.47;;
75429;SDS011;64127;51.488;5.462;2023-07-22T01:25:43;10.40;;;9.40;;
75429;SDS011;64127;51.488;5.462;2023-07-22T01:28:20;9.90;;;8.90;;
75429;SDS011;64127;51.488;5.462;2023-07-22T01:30:53;10.63;;;9.63;;
75429;SDS011;64127;51.488;5.462;2023-07-22T01:33:26;10.97;;;9.50;;
75429;SDS011;64127;51.488;5.462;2023-07-22T01:35:59;10.00;;;9.10;;
75429;SDS011;64127;51.488;5.462;2023-07-22T01:38:33;10.67;;;9.50;;
75429;SDS011;64127;51.488;5.462;2023-07-22T01:41:06;10.27;;;9.27;;
75429;SDS011;64127;51.488;5.462;2023-07-22T01:43:38;10.77;;;9.13;;
75429;SDS011;64127;51.488;5.462;2023-07-22T01:46:10;11.00;;;9.83;;
75429;SDS011;64127;51.488;5.462;2023-07-22T01:48:45;10.67;;;9.57;;
75429;SDS011;64127;51.488;5.462;2023-07-22T01:51:17;10.17;;;9.20;;
75429;SDS011;64127;51.488;5.462;2023-07-22T01:53:49;10.83;;;9.83;;
75429;SDS011;64127;51.488;5.462;2023-07-22T01:56:22;10.43;;;9.23;;
75429;SDS011;64127;51.488;5.462;2023-07-22T01:58:55;10.70;;;9.60;;
75429;SDS011;64127;51.488;5.462;2023-07-22T02:01:27;10.83;;;9.73;;
75429;SDS011;64127;51.488;5.462;2023-07-22T02:04:00;10.27;;;9.27;;
75429;SDS011;64127;51.488;5.462;2023-07-22T02:06:32;10.90;;;9.80;;
75429;SDS011;64127;51.488;5.462;2023-07-22T02:09:04;11.63;;;9.03;;
75429;SDS011;64127;51.488;5.462;2023-07-22T02:11:40;10.93;;;9.83;;
75429;SDS011;64127;51.488;5.462;2023-07-22T02:14:12;10.50;;;9.40;;
75429;SDS011;64127;51.488;5.462;2023-07-22T02:16:47;10.40;;;9.40;;
75429;SDS011;64127;51.488;5.462;2023-07-22T02:19:19;11.03;;;9.93;;
75429;SDS011;64127;51.488;5.462;2023-07-22T02:21:51;10.90;;;9.77;;
75429;SDS011;64127;51.488;5.462;2023-07-22T02:24:23;12.87;;;10.13;;
75429;SDS011;64127;51.488;5.462;2023-07-22T02:26:56;11.80;;;10.03;;
75429;SDS011;64127;51.488;5.462;2023-07-22T02:29:28;11.07;;;9.97;;
75429;SDS011;64127;51.488;5.462;2023-07-22T02:32:02;11.10;;;9.93;;
75429;SDS011;64127;51.488;5.462;2023-07-22T02:34:37;11.33;;;10.17;;
75429;SDS011;64127;51.488;5.462;2023-07-22T02:37:09;10.70;;;9.60;;
75429;SDS011;64127;51.488;5.462;2023-07-22T02:39:41;11.10;;;9.90;;
75429;SDS011;64127;51.488;5.462;2023-07-22T02:42:13;11.17;;;10.07;;
75429;SDS011;64127;51.488;5.462;2023-07-22T02:44:45;11.23;;;10.00;;
75429;SDS011;64127;51.488;5.462;2023-07-22T02:47:17;10.90;;;9.80;;
75429;SDS011;64127;51.488;5.462;2023-07-22T02:49:49;11.27;;;10.03;;
75429;SDS011;64127;51.488;5.462;2023-07-22T02:52:22;11.03;;;9.93;;
75429;SDS011;64127;51.488;5.462;2023-07-22T02:55:10;10.90;;;9.77;;
75429;SDS011;64127;51.488;5.462;2023-07-22T02:57:46;10.13;;;9.23;;
75429;SDS011;64127;51.488;5.462;2023-07-22T03:00:19;10.63;;;9.63;;
75429;SDS011;64127;51.488;5.462;2023-07-22T03:02:58;12.30;;;9.73;;
75429;SDS011;64127;51.488;5.462;2023-07-22T03:05:37;10.30;;;9.30;;
75429;SDS011;64127;51.488;5.462;2023-07-22T03:08:09;10.63;;;9.63;;
75429;SDS011;64127;51.488;5.462;2023-07-22T03:10:47;11.30;;;9.97;;
75429;SDS011;64127;51.488;5.462;2023-07-22T03:13:20;10.90;;;9.90;;
75429;SDS011;64127;51.488;5.462;2023-07-22T03:15:52;10.97;;;9.87;;
75429;SDS011;64127;51.488;5.462;2023-07-22T03:18:24;13.67;;;9.77;;
75429;SDS011;64127;51.488;5.462;2023-07-22T03:20:56;11.00;;;9.90;;
75429;SDS011;64127;51.488;5.462;2023-07-22T03:23:29;10.50;;;9.37;;
75429;SDS011;64127;51.488;5.462;2023-07-22T03:26:01;11.50;;;9.80;;
75429;SDS011;64127;51.488;5.462;2023-07-22T03:28:33;10.80;;;9.80;;
75429;SDS011;64127;51.488;5.462;2023-07-22T03:31:05;11.20;;;10.10;;
75429;SDS011;64127;51.488;5.462;2023-07-22T03:33:38;12.47;;;9.43;;
75429;SDS011;64127;51.488;5.462;2023-07-22T03:36:10;10.53;;;9.53;;
75429;SDS011;64127;51.488;5.462;2023-07-22T03:38:44;10.53;;;9.47;;
75429;SDS011;64127;51.488;5.462;2023-07-22T03:41:19;10.20;;;9.20;;
75429;SDS011;64127;51.488;5.462;2023-07-22T03:43:53;11.47;;;9.87;;
75429;SDS011;64127;51.488;5.462;2023-07-22T03:46:26;12.20;;;10.53;;
75429;SDS011;64127;51.488;5.462;2023-07-22T03:48:58;11.27;;;9.90;;
75429;SDS011;64127;51.488;5.462;2023-07-22T03:51:30;11.07;;;9.97;;
75429;SDS011;64127;51.488;5.462;2023-07-22T03:54:03;13.47;;;10.63;;
75429;SDS011;64127;51.488;5.462;2023-07-22T03:56:36;11.10;;;9.90;;
75429;SDS011;64127;51.488;5.462;2023-07-22T03:59:12;10.80;;;9.77;;
75429;SDS011;64127;51.488;5.462;2023-07-22T04:01:47;10.77;;;9.73;;
75429;SDS011;64127;51.488;5.462;2023-07-22T04:04:19;11.13;;;9.90;;
75429;SDS011;64127;51.488;5.462;2023-07-22T04:06:51;10.90;;;9.80;;
75429;SDS011;64127;51.488;5.462;2023-07-22T04:09:23;11.13;;;9.93;;
75429;SDS011;64127;51.488;5.462;2023-07-22T04:11:55;10.97;;;9.70;;
75429;SDS011;64127;51.488;5.462;2023-07-22T04:14:27;11.00;;;9.90;;
75429;SDS011;64127;51.488;5.462;2023-07-22T04:17:00;11.53;;;9.90;;
75429;SDS011;64127;51.488;5.462;2023-07-22T04:19:32;12.00;;;9.80;;
75429;SDS011;64127;51.488;5.462;2023-07-22T04:22:04;11.00;;;9.90;;
75429;SDS011;64127;51.488;5.462;2023-07-22T04:24:37;10.53;;;9.53;;
75429;SDS011;64127;51.488;5.462;2023-07-22T04:27:10;10.53;;;9.50;;
75429;SDS011;64127;51.488;5.462;2023-07-22T04:29:42;10.60;;;9.50;;
75429;SDS011;64127;51.488;5.462;2023-07-22T04:32:17;13.73;;;9.93;;
75429;SDS011;64127;51.488;5.462;2023-07-22T04:34:50;10.03;;;9.03;;
75429;SDS011;64127;51.488;5.462;2023-07-22T04:37:22;11.40;;;10.00;;
75429;SDS011;64127;51.488;5.462;2023-07-22T04:39:54;10.33;;;9.30;;
75429;SDS011;64127;51.488;5.462;2023-07-22T04:42:26;10.97;;;9.77;;
75429;SDS011;64127;51.488;5.462;2023-07-22T04:44:59;10.97;;;9.13;;
75429;SDS011;64127;51.488;5.462;2023-07-22T04:47:31;10.30;;;9.20;;
75429;SDS011;64127;51.488;5.462;2023-07-22T04:50:03;11.00;;;9.73;;
75429;SDS011;64127;51.488;5.462;2023-07-22T04:52:37;10.37;;;9.37;;
75429;SDS011;64127;51.488;5.462;2023-07-22T04:55:10;11.20;;;9.83;;
75429;SDS011;64127;51.488;5.462;2023-07-22T04:57:43;11.43;;;10.23;;
75429;SDS011;64127;51.488;5.462;2023-07-22T05:00:21;12.27;;;9.43;;
75429;SDS011;64127;51.488;5.462;2023-07-22T05:02:53;11.40;;;9.80;;
75429;SDS011;64127;51.488;5.462;2023-07-22T05:05:27;11.33;;;10.10;;
75429;SDS011;64127;51.488;5.462;2023-07-22T05:08:00;11.63;;;9.80;;
75429;SDS011;64127;51.488;5.462;2023-07-22T05:10:33;10.93;;;9.73;;
75429;SDS011;64127;51.488;5.462;2023-07-22T05:13:05;10.20;;;9.13;;
75429;SDS011;64127;51.488;5.462;2023-07-22T05:15:37;10.53;;;9.47;;
75429;SDS011;64127;51.488;5.462;2023-07-22T05:18:09;10.93;;;9.77;;
75429;SDS011;64127;51.488;5.462;2023-07-22T05:20:42;10.87;;;9.40;;
75429;SDS011;64127;51.488;5.462;2023-07-22T05:23:17;11.03;;;9.93;;
75429;SDS011;64127;51.488;5.462;2023-07-22T05:25:52;12.63;;;9.60;;
75429;SDS011;64127;51.488;5.462;2023-07-22T05:28:25;10.47;;;9.37;;
75429;SDS011;64127;51.488;5.462;2023-07-22T05:30:57;11.87;;;9.23;;
75429;SDS011;64127;51.488;5.462;2023-07-22T05:33:29;12.13;;;9.97;;
75429;SDS011;64127;51.488;5.462;2023-07-22T05:36:01;11.93;;;10.07;;
75429;SDS011;64127;51.488;5.462;2023-07-22T05:38:33;10.57;;;9.47;;
75429;SDS011;64127;51.488;5.462;2023-07-22T05:41:05;11.43;;;10.23;;
75429;SDS011;64127;51.488;5.462;2023-07-22T05:43:37;11.63;;;10.17;;
75429;SDS011;64127;51.488;5.462;2023-07-22T05:46:09;11.23;;;9.63;;
75429;SDS011;64127;51.488;5.462;2023-07-22T05:48:41;12.23;;;10.10;;
75429;SDS011;64127;51.488;5.462;2023-07-22T05:51:13;13.33;;;10.13;;
75429;SDS011;64127;51.488;5.462;2023-07-22T05:53:46;10.50;;;9.47;;
75429;SDS011;64127;51.488;5.462;2023-07-22T05:56:18;12.27;;;10.20;;
75429;SDS011;64127;51.488;5.462;2023-07-22T05:58:50;11.37;;;10.23;;
75429;SDS011;64127;51.488;5.462;2023-07-22T06:01:25;11.03;;;9.77;;
75429;SDS011;64127;51.488;5.462;2023-07-22T06:03:57;18.07;;;10.53;;
75429;SDS011;64127;51.488;5.462;2023-07-22T06:06:30;12.07;;;10.37;;
75429;SDS011;64127;51.488;5.462;2023-07-22T06:09:03;11.93;;;10.73;;
75429;SDS011;64127;51.488;5.462;2023-07-22T06:11:36;10.93;;;9.73;;
75429;SDS011;64127;51.488;5.462;2023-07-22T06:14:08;12.37;;;10.50;;
75429;SDS011;64127;51.488;5.462;2023-07-22T06:16:40;11.37;;;10.17;;
75429;SDS011;64127;51.488;5.462;2023-07-22T06:19:20;11.33;;;10.10;;
75429;SDS011;64127;51.488;5.462;2023-07-22T06:21:52;16.40;;;11.30;;
75429;SDS011;64127;51.488;5.462;2023-07-22T06:24:25;12.70;;;10.00;;
75429;SDS011;64127;51.488;5.462;2023-07-22T06:26:57;14.40;;;11.13;;
75429;SDS011;64127;51.488;5.462;2023-07-22T06:29:29;16.47;;;11.27;;
75429;SDS011;64127;51.488;5.462;2023-07-22T06:32:01;14.60;;;10.43;;
75429;SDS011;64127;51.488;5.462;2023-07-22T06:34:34;13.47;;;10.67;;
75429;SDS011;64127;51.488;5.462;2023-07-22T06:37:06;13.13;;;10.77;;
75429;SDS011;64127;51.488;5.462;2023-07-22T06:39:41;12.63;;;10.67;;
75429;SDS011;64127;51.488;5.462;2023-07-22T06:42:13;13.00;;;10.87;;
75429;SDS011;64127;51.488;5.462;2023-07-22T06:44:45;13.90;;;10.67;;
75429;SDS011;64127;51.488;5.462;2023-07-22T06:47:17;12.60;;;10.30;;
75429;SDS011;64127;51.488;5.462;2023-07-22T06:49:49;15.37;;;11.07;;
75429;SDS011;64127;51.488;5.462;2023-07-22T06:52:22;16.10;;;10.63;;
75429;SDS011;64127;51.488;5.462;2023-07-22T06:54:55;12.83;;;11.13;;
75429;SDS011;64127;51.488;5.462;2023-07-22T06:57:28;14.03;;;11.47;;
75429;SDS011;64127;51.488;5.462;2023-07-22T07:00:01;16.23;;;11.07;;
75429;SDS011;64127;51.488;5.462;2023-07-22T07:02:33;12.50;;;10.53;;
75429;SDS011;64127;51.488;5.462;2023-07-22T07:05:05;15.27;;;11.20;;
75429;SDS011;64127;51.488;5.462;2023-07-22T07:07:38;15.07;;;11.00;;
75429;SDS011;64127;51.488;5.462;2023-07-22T07:10:10;14.67;;;11.10;;
75429;SDS011;64127;51.488;5.462;2023-07-22T07:12:44;11.67;;;9.80;;
75429;SDS011;64127;51.488;5.462;2023-07-22T07:15:16;14.63;;;11.20;;
75429;SDS011;64127;51.488;5.462;2023-07-22T07:17:49;15.77;;;9.73;;
75429;SDS011;64127;51.488;5.462;2023-07-22T07:20:21;12.40;;;9.40;;
75429;SDS011;64127;51.488;5.462;2023-07-22T07:22:53;12.23;;;10.00;;
75429;SDS011;64127;51.488;5.462;2023-07-22T07:25:25;10.73;;;9.13;;
75429;SDS011;64127;51.488;5.462;2023-07-22T07:27:57;11.70;;;9.40;;
75429;SDS011;64127;51.488;5.462;2023-07-22T07:30:29;10.30;;;9.20;;
75429;SDS011;64127;51.488;5.462;2023-07-22T07:33:03;12.77;;;9.00;;
75429;SDS011;64127;51.488;5.462;2023-07-22T07:35:37;13.73;;;9.20;;
75429;SDS011;64127;51.488;5.462;2023-07-22T07:38:10;12.53;;;9.33;;
75429;SDS011;64127;51.488;5.462;2023-07-22T07:40:42;14.10;;;8.97;;
75429;SDS011;64127;51.488;5.462;2023-07-22T07:43:17;14.03;;;9.73;;
75429;SDS011;64127;51.488;5.462;2023-07-22T07:45:49;13.70;;;9.30;;
75429;SDS011;64127;51.488;5.462;2023-07-22T07:48:22;10.43;;;8.80;;
75429;SDS011;64127;51.488;5.462;2023-07-22T07:50:54;13.03;;;8.73;;
75429;SDS011;64127;51.488;5.462;2023-07-22T07:53:26;11.43;;;8.67;;
75429;SDS011;64127;51.488;5.462;2023-07-22T07:55:58;12.97;;;9.10;;
75429;SDS011;64127;51.488;5.462;2023-07-22T07:58:30;12.97;;;8.97;;
75429;SDS011;64127;51.488;5.462;2023-07-22T08:01:03;10.43;;;8.47;;
75429;SDS011;64127;51.488;5.462;2023-07-22T08:03:38;10.43;;;8.40;;
75429;SDS011;64127;51.488;5.462;2023-07-22T08:06:19;12.00;;;8.10;;
75429;SDS011;64127;51.488;5.462;2023-07-22T08:08:51;10.13;;;7.90;;
75429;SDS011;64127;51.488;5.462;2023-07-22T08:11:23;9.30;;;7.67;;
75429;SDS011;64127;51.488;5.462;2023-07-22T08:13:58;12.47;;;8.67;;
75429;SDS011;64127;51.488;5.462;2023-07-22T08:16:33;10.17;;;8.03;;
75429;SDS011;64127;51.488;5.462;2023-07-22T08:19:05;7.80;;;7.10;;
75429;SDS011;64127;51.488;5.462;2023-07-22T08:21:37;10.70;;;7.97;;
75429;SDS011;64127;51.488;5.462;2023-07-22T08:24:10;8.90;;;7.50;;
75429;SDS011;64127;51.488;5.462;2023-07-22T08:26:42;11.00;;;8.00;;
75429;SDS011;64127;51.488;5.462;2023-07-22T08:29:20;8.77;;;7.33;;
75429;SDS011;64127;51.488;5.462;2023-07-22T08:31:52;10.23;;;7.60;;
75429;SDS011;64127;51.488;5.462;2023-07-22T08:34:24;11.07;;;7.43;;
75429;SDS011;64127;51.488;5.462;2023-07-22T08:36:56;10.03;;;7.07;;
75429;SDS011;64127;51.488;5.462;2023-07-22T08:39:29;9.20;;;6.70;;
75429;SDS011;64127;51.488;5.462;2023-07-22T08:42:01;8.00;;;6.23;;
75429;SDS011;64127;51.488;5.462;2023-07-22T08:44:37;10.83;;;5.90;;
75429;SDS011;64127;51.488;5.462;2023-07-22T08:47:16;8.33;;;6.00;;
75429;SDS011;64127;51.488;5.462;2023-07-22T08:49:57;8.80;;;6.30;;
75429;SDS011;64127;51.488;5.462;2023-07-22T08:52:33;9.07;;;6.80;;
75429;SDS011;64127;51.488;5.462;2023-07-22T08:55:06;7.93;;;5.60;;
75429;SDS011;64127;51.488;5.462;2023-07-22T08:57:42;7.93;;;5.87;;
75429;SDS011;64127;51.488;5.462;2023-07-22T09:00:15;9.37;;;6.23;;
75429;SDS011;64127;51.488;5.462;2023-07-22T09:02:48;6.63;;;5.53;;
75429;SDS011;64127;51.488;5.462;2023-07-22T09:05:21;6.53;;;5.60;;
75429;SDS011;64127;51.488;5.462;2023-07-22T09:07:54;7.17;;;5.63;;
75429;SDS011;64127;51.488;5.462;2023-07-22T09:10:28;7.53;;;6.30;;
75429;SDS011;64127;51.488;5.462;2023-07-22T09:13:01;6.93;;;5.63;;
75429;SDS011;64127;51.488;5.462;2023-07-22T09:15:42;6.43;;;5.60;;
75429;SDS011;64127;51.488;5.462;2023-07-22T09:18:16;6.73;;;5.10;;
75429;SDS011;64127;51.488;5.462;2023-07-22T09:20:48;6.03;;;4.93;;
75429;SDS011;64127;51.488;5.462;2023-07-22T09:23:32;7.10;;;5.00;;
75429;SDS011;64127;51.488;5.462;2023-07-22T09:26:12;8.30;;;4.93;;
75429;SDS011;64127;51.488;5.462;2023-07-22T09:28:47;6.60;;;4.80;;
75429;SDS011;64127;51.488;5.462;2023-07-22T09:31:27;6.70;;;5.27;;
75429;SDS011;64127;51.488;5.462;2023-07-22T09:34:10;6.43;;;4.67;;
75429;SDS011;64127;51.488;5.462;2023-07-22T09:36:49;6.93;;;4.57;;
75429;SDS011;64127;51.488;5.462;2023-07-22T09:39:31;9.90;;;5.67;;
75429;SDS011;64127;51.488;5.462;2023-07-22T09:42:06;8.83;;;4.80;;
75429;SDS011;64127;51.488;5.462;2023-07-22T09:44:45;6.10;;;4.57;;
75429;SDS011;64127;51.488;5.462;2023-07-22T09:47:20;5.13;;;4.50;;
75429;SDS011;64127;51.488;5.462;2023-07-22T09:49:52;7.33;;;4.70;;
75429;SDS011;64127;51.488;5.462;2023-07-22T09:52:24;5.40;;;4.20;;
75429;SDS011;64127;51.488;5.462;2023-07-22T09:55:00;5.63;;;4.17;;
75429;SDS011;64127;51.488;5.462;2023-07-22T09:57:35;8.03;;;4.47;;
75429;SDS011;64127;51.488;5.462;2023-07-22T10:00:12;5.77;;;4.27;;
75429;SDS011;64127;51.488;5.462;2023-07-22T10:02:48;7.80;;;4.40;;
75429;SDS011;64127;51.488;5.462;2023-07-22T10:05:24;5.73;;;4.00;;
75429;SDS011;64127;51.488;5.462;2023-07-22T10:08:06;7.23;;;4.40;;
75429;SDS011;64127;51.488;5.462;2023-07-22T10:10:40;6.30;;;4.30;;
75429;SDS011;64127;51.488;5.462;2023-07-22T10:13:19;6.57;;;4.53;;
75429;SDS011;64127;51.488;5.462;2023-07-22T10:15:54;4.83;;;3.80;;
75429;SDS011;64127;51.488;5.462;2023-07-22T10:18:27;5.70;;;3.90;;
75429;SDS011;64127;51.488;5.462;2023-07-22T10:21:06;7.03;;;3.97;;
75429;SDS011;64127;51.488;5.462;2023-07-22T10:23:40;3.80;;;3.37;;
75429;SDS011;64127;51.488;5.462;2023-07-22T10:26:22;4.90;;;3.63;;
75429;SDS011;64127;51.488;5.462;2023-07-22T10:29:15;7.10;;;3.90;;
75429;SDS011;64127;51.488;5.462;2023-07-22T10:31:47;6.10;;;3.70;;
75429;SDS011;64127;51.488;5.462;2023-07-22T10:34:24;4.60;;;3.00;;
75429;SDS011;64127;51.488;5.462;2023-07-22T10:37:04;3.27;;;2.80;;
75429;SDS011;64127;51.488;5.462;2023-07-22T10:39:43;5.03;;;2.90;;
75429;SDS011;64127;51.488;5.462;2023-07-22T10:42:25;3.63;;;2.40;;
75429;SDS011;64127;51.488;5.462;2023-07-22T10:45:00;3.03;;;2.70;;
75429;SDS011;64127;51.488;5.462;2023-07-22T10:47:33;4.03;;;2.67;;
75429;SDS011;64127;51.488;5.462;2023-07-22T10:50:08;3.23;;;2.40;;
75429;SDS011;64127;51.488;5.462;2023-07-22T10:52:44;4.63;;;2.37;;
75429;SDS011;64127;51.488;5.462;2023-07-22T10:55:22;3.53;;;2.33;;
75429;SDS011;64127;51.488;5.462;2023-07-22T10:57:58;3.30;;;2.50;;
75429;SDS011;64127;51.488;5.462;2023-07-22T11:00:37;3.43;;;2.30;;
75429;SDS011;64127;51.488;5.462;2023-07-22T11:03:13;2.47;;;2.20;;
75429;SDS011;64127;51.488;5.462;2023-07-22T11:05:50;2.90;;;2.30;;
75429;SDS011;64127;51.488;5.462;2023-07-22T11:08:39;4.73;;;2.50;;
75429;SDS011;64127;51.488;5.462;2023-07-22T11:11:14;3.27;;;2.17;;
75429;SDS011;64127;51.488;5.462;2023-07-22T11:13:50;2.83;;;2.10;;
75429;SDS011;64127;51.488;5.462;2023-07-22T11:16:22;3.00;;;1.87;;
75429;SDS011;64127;51.488;5.462;2023-07-22T11:18:55;4.23;;;2.00;;
75429;SDS011;64127;51.488;5.462;2023-07-22T11:21:30;5.83;;;2.37;;
75429;SDS011;64127;51.488;5.462;2023-07-22T11:24:08;3.93;;;2.03;;
75429;SDS011;64127;51.488;5.462;2023-07-22T11:26:44;3.63;;;2.43;;
75429;SDS011;64127;51.488;5.462;2023-07-22T11:29:20;3.43;;;2.40;;
75429;SDS011;64127;51.488;5.462;2023-07-22T11:31:53;2.67;;;2.27;;
75429;SDS011;64127;51.488;5.462;2023-07-22T11:34:27;2.73;;;2.10;;
75429;SDS011;64127;51.488;5.462;2023-07-22T11:36:59;3.93;;;2.47;;
75429;SDS011;64127;51.488;5.462;2023-07-22T11:39:31;2.70;;;2.40;;
75429;SDS011;64127;51.488;5.462;2023-07-22T11:42:04;4.00;;;2.70;;
75429;SDS011;64127;51.488;5.462;2023-07-22T11:44:37;2.90;;;2.43;;
75429;SDS011;64127;51.488;5.462;2023-07-22T11:47:10;4.97;;;2.63;;
75429;SDS011;64127;51.488;5.462;2023-07-22T11:49:54;2.53;;;2.30;;
75429;SDS011;64127;51.488;5.462;2023-07-22T11:52:27;3.23;;;2.53;;
75429;SDS011;64127;51.488;5.462;2023-07-22T11:55:01;3.87;;;2.47;;
75429;SDS011;64127;51.488;5.462;2023-07-22T11:57:53;3.70;;;2.80;;
75429;SDS011;64127;51.488;5.462;2023-07-22T12:00:26;4.90;;;2.83;;
75429;SDS011;64127;51.488;5.462;2023-07-22T12:03:05;2.63;;;2.33;;
75429;SDS011;64127;51.488;5.462;2023-07-22T12:05:38;3.30;;;2.30;;
75429;SDS011;64127;51.488;5.462;2023-07-22T12:08:14;4.07;;;2.10;;
75429;SDS011;64127;51.488;5.462;2023-07-22T12:10:56;4.27;;;2.63;;
75429;SDS011;64127;51.488;5.462;2023-07-22T12:13:36;2.43;;;2.20;;
75429;SDS011;64127;51.488;5.462;2023-07-22T12:16:09;3.83;;;2.70;;
75429;SDS011;64127;51.488;5.462;2023-07-22T12:18:42;4.80;;;2.63;;
75429;SDS011;64127;51.488;5.462;2023-07-22T12:21:18;3.07;;;2.57;;
75429;SDS011;64127;51.488;5.462;2023-07-22T12:23:52;3.27;;;2.20;;
75429;SDS011;64127;51.488;5.462;2023-07-22T12:26:25;4.27;;;2.50;;
75429;SDS011;64127;51.488;5.462;2023-07-22T12:29:00;4.03;;;2.50;;
75429;SDS011;64127;51.488;5.462;2023-07-22T12:31:33;3.23;;;2.40;;
75429;SDS011;64127;51.488;5.462;2023-07-22T12:34:06;5.60;;;2.70;;
75429;SDS011;64127;51.488;5.462;2023-07-22T12:36:38;4.27;;;2.60;;
75429;SDS011;64127;51.488;5.462;2023-07-22T12:39:11;3.97;;;2.40;;
75429;SDS011;64127;51.488;5.462;2023-07-22T12:41:45;3.47;;;2.60;;
75429;SDS011;64127;51.488;5.462;2023-07-22T12:44:17;3.33;;;2.30;;
75429;SDS011;64127;51.488;5.462;2023-07-22T12:46:49;2.30;;;2.10;;
75429;SDS011;64127;51.488;5.462;2023-07-22T12:49:21;2.43;;;2.13;;
75429;SDS011;64127;51.488;5.462;2023-07-22T12:51:54;2.87;;;2.50;;
75429;SDS011;64127;51.488;5.462;2023-07-22T12:54:26;2.63;;;2.40;;
75429;SDS011;64127;51.488;5.462;2023-07-22T12:56:58;6.47;;;2.67;;
75429;SDS011;64127;51.488;5.462;2023-07-22T12:59:32;3.80;;;2.33;;
75429;SDS011;64127;51.488;5.462;2023-07-22T13:02:05;4.90;;;2.20;;
75429;SDS011;64127;51.488;5.462;2023-07-22T13:04:53;2.07;;;1.90;;
75429;SDS011;64127;51.488;5.462;2023-07-22T13:07:27;3.93;;;1.97;;
75429;SDS011;64127;51.488;5.462;2023-07-22T13:10:00;2.23;;;2.03;;
75429;SDS011;64127;51.488;5.462;2023-07-22T13:12:42;3.03;;;2.30;;
75429;SDS011;64127;51.488;5.462;2023-07-22T13:15:24;2.80;;;2.00;;
75429;SDS011;64127;51.488;5.462;2023-07-22T13:17:59;3.00;;;2.20;;
75429;SDS011;64127;51.488;5.462;2023-07-22T13:20:49;3.00;;;2.33;;
75429;SDS011;64127;51.488;5.462;2023-07-22T13:26:36;2.53;;;2.10;;
75429;SDS011;64127;51.488;5.462;2023-07-22T13:29:11;2.60;;;2.03;;
75429;SDS011;64127;51.488;5.462;2023-07-22T13:31:46;2.20;;;2.00;;
75429;SDS011;64127;51.488;5.462;2023-07-22T13:34:22;4.43;;;2.20;;
75429;SDS011;64127;51.488;5.462;2023-07-22T13:37:02;2.10;;;1.90;;
75429;SDS011;64127;51.488;5.462;2023-07-22T13:39:40;3.13;;;2.00;;
75429;SDS011;64127;51.488;5.462;2023-07-22T13:42:15;2.13;;;1.87;;
75429;SDS011;64127;51.488;5.462;2023-07-22T13:44:56;3.73;;;2.10;;
75429;SDS011;64127;51.488;5.462;2023-07-22T13:47:29;2.63;;;1.60;;
75429;SDS011;64127;51.488;5.462;2023-07-22T13:50:01;1.93;;;1.73;;
75429;SDS011;64127;51.488;5.462;2023-07-22T13:52:38;2.07;;;1.80;;
75429;SDS011;64127;51.488;5.462;2023-07-22T13:55:31;2.87;;;1.90;;
75429;SDS011;64127;51.488;5.462;2023-07-22T13:58:11;3.50;;;2.00;;
75429;SDS011;64127;51.488;5.462;2023-07-22T14:00:44;2.37;;;2.07;;
75429;SDS011;64127;51.488;5.462;2023-07-22T14:03:19;3.00;;;2.10;;
75429;SDS011;64127;51.488;5.462;2023-07-22T14:05:52;2.00;;;1.80;;
75429;SDS011;64127;51.488;5.462;2023-07-22T14:08:25;2.47;;;1.90;;
75429;SDS011;64127;51.488;5.462;2023-07-22T14:10:58;2.03;;;1.90;;
75429;SDS011;64127;51.488;5.462;2023-07-22T14:13:37;2.13;;;1.90;;
75429;SDS011;64127;51.488;5.462;2023-07-22T14:16:16;2.70;;;1.87;;
75429;SDS011;64127;51.488;5.462;2023-07-22T14:18:53;2.80;;;2.00;;
75429;SDS011;64127;51.488;5.462;2023-07-22T14:21:27;2.30;;;2.00;;
75429;SDS011;64127;51.488;5.462;2023-07-22T14:23:59;2.70;;;1.90;;
75429;SDS011;64127;51.488;5.462;2023-07-22T14:26:32;4.73;;;2.27;;
75429;SDS011;64127;51.488;5.462;2023-07-22T14:29:06;2.20;;;2.00;;
75429;SDS011;64127;51.488;5.462;2023-07-22T14:31:41;2.57;;;2.07;;
75429;SDS011;64127;51.488;5.462;2023-07-22T14:34:17;2.30;;;2.00;;
75429;SDS011;64127;51.488;5.462;2023-07-22T14:37:04;2.97;;;2.10;;
75429;SDS011;64127;51.488;5.462;2023-07-22T14:39:53;2.53;;;2.10;;
75429;SDS011;64127;51.488;5.462;2023-07-22T14:42:49;2.10;;;1.90;;
75429;SDS011;64127;51.488;5.462;2023-07-22T14:45:34;3.73;;;2.03;;
75429;SDS011;64127;51.488;5.462;2023-07-22T14:48:06;4.20;;;2.30;;
75429;SDS011;64127;51.488;5.462;2023-07-22T14:50:46;2.97;;;2.10;;
75429;SDS011;64127;51.488;5.462;2023-07-22T14:53:18;3.10;;;2.30;;
75429;SDS011;64127;51.488;5.462;2023-07-22T14:55:54;3.10;;;2.10;;
75429;SDS011;64127;51.488;5.462;2023-07-22T14:58:26;3.70;;;2.33;;
75429;SDS011;64127;51.488;5.462;2023-07-22T15:00:58;2.97;;;1.90;;
75429;SDS011;64127;51.488;5.462;2023-07-22T15:03:33;3.27;;;2.10;;
75429;SDS011;64127;51.488;5.462;2023-07-22T15:06:11;2.23;;;2.03;;
75429;SDS011;64127;51.488;5.462;2023-07-22T15:08:46;3.40;;;2.17;;
75429;SDS011;64127;51.488;5.462;2023-07-22T15:11:19;3.67;;;2.30;;
75429;SDS011;64127;51.488;5.462;2023-07-22T15:13:51;4.17;;;2.20;;
75429;SDS011;64127;51.488;5.462;2023-07-22T15:16:30;4.47;;;2.40;;
75429;SDS011;64127;51.488;5.462;2023-07-22T15:19:02;3.83;;;2.40;;
75429;SDS011;64127;51.488;5.462;2023-07-22T15:21:34;3.50;;;2.50;;
75429;SDS011;64127;51.488;5.462;2023-07-22T15:24:15;3.67;;;2.20;;